Time;durP1;ratioP1;P1;durP2;ratioP2;P2;SDS_P1;SDS_P2;PMS_P1;PMS_P2;Temp;Humidity;BMP_temperature;BMP_pressure;BME280_temperature;BME280_humidity;BME280_pressure;Samples;Min_cycle;Max_cycle;Signal;HPM_P1;HPM_P2
2023/04/15 00:01:43;;;;;;;14.48;9.80;;;;;;;;;;5036838;28;20052;-78
2023/04/15 00:04:09;;;;;;;14.30;8.60;;;;;;;;;;5009397;28;20270;-78
2023/04/15 00:06:38;;;;;;;14.25;8.70;;;;;;;;;;4995418;28;21288;-78
2023/04/15 00:09:04;;;;;;;16.20;9.13;;;;;;;;;;5010729;28;20049;-78
2023/04/15 00:11:30;;;;;;;14.68;9.10;;;;;;;;;;5011129;28;20050;-78
2023/04/15 00:13:57;;;;;;;14.88;9.52;;;;;;;;;;5031338;28;20071;-78
2023/04/15 00:16:23;;;;;;;13.13;9.35;;;;;;;;;;5019629;28;20041;-78
2023/04/15 00:18:49;;;;;;;17.08;9.55;;;;;;;;;;5005024;28;20040;-78
2023/04/15 00:21:16;;;;;;;16.42;9.77;;;;;;;;;;5012498;28;20047;-78
2023/04/15 00:23:42;;;;;;;15.98;10.35;;;;;;;;;;5015688;28;20052;-77
2023/04/15 00:26:09;;;;;;;15.88;10.15;;;;;;;;;;5037960;28;20546;-77
2023/04/15 00:28:35;;;;;;;15.18;9.60;;;;;;;;;;5016680;28;21463;-78
2023/04/15 00:31:01;;;;;;;16.98;9.88;;;;;;;;;;5003358;28;20045;-78
2023/04/15 00:33:27;;;;;;;14.73;9.80;;;;;;;;;;4988654;28;20543;-78
2023/04/15 00:35:53;;;;;;;15.55;9.65;;;;;;;;;;5019604;28;20045;-78
2023/04/15 00:38:19;;;;;;;12.75;10.30;;;;;;;;;;5018980;28;20044;-78
2023/04/15 00:40:45;;;;;;;15.02;9.45;;;;;;;;;;5017319;28;20052;-78
2023/04/15 00:43:11;;;;;;;11.57;9.15;;;;;;;;;;5018927;28;20462;-78
2023/04/15 00:45:37;;;;;;;14.10;9.77;;;;;;;;;;5019582;28;20033;-78
2023/04/15 00:48:04;;;;;;;15.07;9.60;;;;;;;;;;5017131;28;20550;-78
2023/04/15 00:50:30;;;;;;;11.73;8.43;;;;;;;;;;5041661;28;20680;-78
2023/04/15 00:52:56;;;;;;;12.43;8.80;;;;;;;;;;5021426;28;20640;-78
2023/04/15 00:55:23;;;;;;;13.30;8.52;;;;;;;;;;5020686;28;20044;-78
2023/04/15 00:57:50;;;;;;;12.75;9.13;;;;;;;;;;5021882;28;20128;-78
2023/04/15 01:00:17;;;;;;;12.45;8.82;;;;;;;;;;5015413;28;20480;-78
2023/04/15 01:02:43;;;;;;;12.52;9.07;;;;;;;;;;5006715;28;20051;-78
2023/04/15 01:05:09;;;;;;;13.52;9.23;;;;;;;;;;5037689;28;20709;-77
2023/04/15 01:07:35;;;;;;;11.48;9.27;;;;;;;;;;5006587;28;20052;-78
2023/04/15 01:10:02;;;;;;;11.93;8.93;;;;;;;;;;5037256;28;20055;-78
2023/04/15 01:12:28;;;;;;;14.45;9.13;;;;;;;;;;5021041;28;20171;-78
2023/04/15 01:14:56;;;;;;;12.82;9.90;;;;;;;;;;5002742;28;20044;-78
2023/04/15 01:17:22;;;;;;;14.80;10.00;;;;;;;;;;5033848;28;20875;-78
2023/04/15 01:19:48;;;;;;;14.43;10.35;;;;;;;;;;5038608;28;20045;-78
2023/04/15 01:22:14;;;;;;;14.95;10.20;;;;;;;;;;4999835;28;20059;-78
2023/04/15 01:24:41;;;;;;;16.10;10.82;;;;;;;;;;5019527;28;20485;-78
2023/04/15 01:27:07;;;;;;;18.55;11.98;;;;;;;;;;4999954;28;20051;-78
2023/04/15 01:29:35;;;;;;;17.63;12.75;;;;;;;;;;5040607;28;20408;-78
2023/04/15 01:32:01;;;;;;;17.90;13.25;;;;;;;;;;5018279;28;20542;-78
2023/04/15 01:34:27;;;;;;;19.23;13.13;;;;;;;;;;5020227;28;20388;-78
2023/04/15 01:36:54;;;;;;;21.73;13.95;;;;;;;;;;5003833;28;20174;-78
2023/04/15 01:39:20;;;;;;;20.55;13.65;;;;;;;;;;5022509;28;20490;-78
2023/04/15 01:41:46;;;;;;;22.58;14.40;;;;;;;;;;5021685;28;20496;-78
2023/04/15 01:44:12;;;;;;;20.88;13.98;;;;;;;;;;5031144;28;20043;-78
2023/04/15 01:46:39;;;;;;;22.63;14.00;;;;;;;;;;5019496;28;20047;-78
2023/04/15 01:49:05;;;;;;;17.85;12.73;;;;;;;;;;5021415;28;20051;-78
2023/04/15 01:51:31;;;;;;;20.50;13.27;;;;;;;;;;5009324;28;20412;-78
2023/04/15 01:53:57;;;;;;;21.13;14.05;;;;;;;;;;5024485;28;20051;-79
2023/04/15 01:56:24;;;;;;;20.85;13.32;;;;;;;;;;5026074;28;20135;-78
2023/04/15 01:58:50;;;;;;;20.10;14.05;;;;;;;;;;5038368;28;20102;-78
2023/04/15 02:01:18;;;;;;;17.63;13.70;;;;;;;;;;5025976;28;20041;-77
2023/04/15 02:03:45;;;;;;;16.60;13.02;;;;;;;;;;5028608;28;20063;-78
2023/04/15 02:06:11;;;;;;;21.73;14.40;;;;;;;;;;5027084;28;20044;-78
2023/04/15 02:08:38;;;;;;;20.30;14.07;;;;;;;;;;5025539;28;20053;-78
2023/04/15 02:11:04;;;;;;;18.25;13.43;;;;;;;;;;5021938;28;20097;-79
2023/04/15 02:13:30;;;;;;;22.70;14.07;;;;;;;;;;5042485;28;20037;-78
2023/04/15 02:15:56;;;;;;;19.42;14.48;;;;;;;;;;5009581;28;20388;-78
2023/04/15 02:18:22;;;;;;;20.75;13.75;;;;;;;;;;5025572;28;20177;-78
2023/04/15 02:20:48;;;;;;;20.25;13.88;;;;;;;;;;5027676;28;20167;-78
2023/04/15 02:23:14;;;;;;;20.65;13.80;;;;;;;;;;4993166;28;20074;-78
2023/04/15 02:25:40;;;;;;;22.70;13.70;;;;;;;;;;5026815;28;20051;-78
2023/04/15 02:28:06;;;;;;;19.00;13.30;;;;;;;;;;5025381;28;21330;-78
2023/04/15 02:30:33;;;;;;;21.80;14.38;;;;;;;;;;5025799;28;20048;-78
2023/04/15 02:33:02;;;;;;;22.80;15.43;;;;;;;;;;5046131;28;20506;-79
2023/04/15 02:35:28;;;;;;;22.23;15.02;;;;;;;;;;5038081;28;20048;-78
2023/04/15 02:37:54;;;;;;;22.88;15.05;;;;;;;;;;5026072;28;20048;-78
2023/04/15 02:40:20;;;;;;;20.52;15.40;;;;;;;;;;5038920;28;20086;-78
2023/04/15 02:42:47;;;;;;;22.30;16.25;;;;;;;;;;5025292;28;20151;-78
2023/04/15 02:45:13;;;;;;;27.17;16.98;;;;;;;;;;5025902;28;20415;-78
2023/04/15 02:47:40;;;;;;;23.17;17.20;;;;;;;;;;5026123;28;20175;-78
2023/04/15 02:50:11;;;;;;;22.42;16.40;;;;;;;;;;5025056;28;20056;-79
2023/04/15 02:52:40;;;;;;;21.98;15.90;;;;;;;;;;5025088;28;20058;-77
2023/04/15 02:55:07;;;;;;;22.77;15.63;;;;;;;;;;5025666;28;20048;-78
2023/04/15 02:57:36;;;;;;;23.08;16.08;;;;;;;;;;5022431;28;20044;-79
2023/04/15 03:00:02;;;;;;;19.65;14.93;;;;;;;;;;5023181;28;20511;-78
2023/04/15 03:02:33;;;;;;;21.25;14.80;;;;;;;;;;5041411;28;20866;-78
2023/04/15 03:04:59;;;;;;;17.40;13.05;;;;;;;;;;5020005;28;20047;-78
2023/04/15 03:07:25;;;;;;;18.85;13.00;;;;;;;;;;5021948;28;20047;-78
2023/04/15 03:09:51;;;;;;;16.33;12.50;;;;;;;;;;5019760;28;20127;-79
2023/04/15 03:12:17;;;;;;;15.55;11.13;;;;;;;;;;5021001;28;20037;-78
2023/04/15 03:14:43;;;;;;;13.52;11.07;;;;;;;;;;5042024;28;20097;-78
2023/04/15 03:17:09;;;;;;;15.48;11.63;;;;;;;;;;5020284;28;20143;-78
2023/04/15 03:19:35;;;;;;;16.30;11.82;;;;;;;;;;5043525;28;20694;-79
2023/04/15 03:22:01;;;;;;;14.70;11.80;;;;;;;;;;5021035;28;20047;-78
2023/04/15 03:24:29;;;;;;;17.15;13.18;;;;;;;;;;5001195;28;20070;-78
2023/04/15 03:26:56;;;;;;;17.25;12.00;;;;;;;;;;5033712;28;20040;-79
2023/04/15 03:29:22;;;;;;;17.45;12.05;;;;;;;;;;5039801;28;20037;-78
2023/04/15 03:31:48;;;;;;;18.13;12.30;;;;;;;;;;5020754;28;20070;-78
2023/04/15 03:34:15;;;;;;;16.35;12.38;;;;;;;;;;5018788;28;20127;-78
2023/04/15 03:36:41;;;;;;;16.58;12.00;;;;;;;;;;5019370;28;20077;-78
2023/04/15 03:39:07;;;;;;;18.45;13.15;;;;;;;;;;5007630;28;20443;-79
2023/04/15 03:41:33;;;;;;;15.82;12.25;;;;;;;;;;5021444;28;20141;-78
2023/04/15 03:43:59;;;;;;;20.77;13.02;;;;;;;;;;5005220;28;20056;-78
2023/04/15 03:46:25;;;;;;;17.52;13.13;;;;;;;;;;5019311;28;20048;-78
2023/04/15 03:48:52;;;;;;;17.00;12.65;;;;;;;;;;5033487;28;20040;-78
2023/04/15 03:51:18;;;;;;;19.15;14.30;;;;;;;;;;5021146;28;20597;-78
2023/04/15 03:53:44;;;;;;;20.25;14.40;;;;;;;;;;5016801;28;20785;-78
2023/04/15 03:56:10;;;;;;;17.30;13.50;;;;;;;;;;5018734;28;20635;-78
2023/04/15 03:58:36;;;;;;;21.38;13.45;;;;;;;;;;5022235;28;20479;-78
2023/04/15 04:01:02;;;;;;;18.15;14.07;;;;;;;;;;5021825;28;20041;-78
2023/04/15 04:03:28;;;;;;;20.33;13.82;;;;;;;;;;5022971;28;20045;-78
2023/04/15 04:05:55;;;;;;;20.38;14.73;;;;;;;;;;5040779;28;20427;-78
2023/04/15 04:08:21;;;;;;;22.23;15.35;;;;;;;;;;5021095;28;20048;-78
2023/04/15 04:10:47;;;;;;;24.45;15.43;;;;;;;;;;5021254;28;20291;-78
2023/04/15 04:13:13;;;;;;;21.35;14.93;;;;;;;;;;5037576;28;20056;-78
2023/04/15 04:15:39;;;;;;;24.52;15.07;;;;;;;;;;5018522;28;20208;-78
2023/04/15 04:18:05;;;;;;;22.48;14.20;;;;;;;;;;5002510;28;20047;-78
2023/04/15 04:20:31;;;;;;;20.35;13.43;;;;;;;;;;5021337;28;20129;-78
2023/04/15 04:22:58;;;;;;;21.50;13.85;;;;;;;;;;5021534;28;20047;-78
2023/04/15 04:25:24;;;;;;;22.27;15.43;;;;;;;;;;5036901;28;20062;-79
2023/04/15 04:27:50;;;;;;;23.02;14.27;;;;;;;;;;5020333;28;21576;-78
2023/04/15 04:30:16;;;;;;;22.33;14.00;;;;;;;;;;5017116;28;20488;-78
2023/04/15 04:32:42;;;;;;;20.20;14.70;;;;;;;;;;5038039;28;20040;-78
2023/04/15 04:35:09;;;;;;;27.35;15.73;;;;;;;;;;5000284;28;20036;-78
2023/04/15 04:37:35;;;;;;;24.05;16.52;;;;;;;;;;5019149;28;20575;-79
2023/04/15 04:40:01;;;;;;;23.95;14.65;;;;;;;;;;5032423;28;20067;-78
2023/04/15 04:42:27;;;;;;;23.83;15.57;;;;;;;;;;5020540;28;20680;-78
2023/04/15 04:44:53;;;;;;;25.17;16.05;;;;;;;;;;5018616;28;20051;-78
2023/04/15 04:47:19;;;;;;;24.60;14.95;;;;;;;;;;4997970;28;20179;-78
2023/04/15 04:49:45;;;;;;;22.35;14.23;;;;;;;;;;5020132;28;20488;-78
2023/04/15 04:52:11;;;;;;;25.08;14.32;;;;;;;;;;5038316;28;20083;-79
2023/04/15 04:54:37;;;;;;;23.40;14.50;;;;;;;;;;5039794;28;20036;-78
2023/04/15 04:57:03;;;;;;;25.08;15.57;;;;;;;;;;5017795;28;20048;-78
2023/04/15 04:59:30;;;;;;;28.55;15.65;;;;;;;;;;5019434;28;20040;-78
2023/04/15 05:01:56;;;;;;;26.42;15.48;;;;;;;;;;5019920;28;20036;-78
2023/04/15 05:04:22;;;;;;;31.25;17.13;;;;;;;;;;5018487;28;20131;-78
2023/04/15 05:06:48;;;;;;;24.08;15.80;;;;;;;;;;5016307;28;20051;-78
2023/04/15 05:09:14;;;;;;;29.65;15.10;;;;;;;;;;5016563;28;20048;-78
2023/04/15 05:11:40;;;;;;;26.88;15.70;;;;;;;;;;5030888;28;20060;-78
2023/04/15 05:14:07;;;;;;;26.20;15.07;;;;;;;;;;5017367;28;20044;-78
2023/04/15 05:16:33;;;;;;;21.95;12.45;;;;;;;;;;5013510;28;20455;-77
2023/04/15 05:18:59;;;;;;;21.73;11.25;;;;;;;;;;4999889;28;20508;-77
2023/04/15 05:21:26;;;;;;;21.52;11.73;;;;;;;;;;5020691;28;20055;-77
2023/04/15 05:23:52;;;;;;;20.30;13.32;;;;;;;;;;5016277;28;20094;-78
2023/04/15 05:26:18;;;;;;;18.48;12.48;;;;;;;;;;5018316;28;20052;-77
2023/04/15 05:28:45;;;;;;;16.75;11.38;;;;;;;;;;5032581;28;20127;-77
2023/04/15 05:31:11;;;;;;;16.15;10.38;;;;;;;;;;5038208;28;20048;-77
2023/04/15 05:33:37;;;;;;;17.90;11.38;;;;;;;;;;5030876;28;20780;-77
2023/04/15 05:36:03;;;;;;;18.25;10.85;;;;;;;;;;5033969;28;20048;-78
2023/04/15 05:38:29;;;;;;;16.98;10.50;;;;;;;;;;5017391;28;20088;-78
2023/04/15 05:40:55;;;;;;;14.13;9.88;;;;;;;;;;5014500;28;20409;-77
2023/04/15 05:43:21;;;;;;;16.90;10.15;;;;;;;;;;5016699;28;20075;-77
2023/04/15 05:45:47;;;;;;;16.80;9.82;;;;;;;;;;5022833;28;20072;-77
2023/04/15 05:48:13;;;;;;;15.57;10.32;;;;;;;;;;5016630;28;20045;-77
2023/04/15 05:50:42;;;;;;;18.73;10.20;;;;;;;;;;5018354;28;20067;-78
2023/04/15 05:53:09;;;;;;;23.40;11.23;;;;;;;;;;5020974;28;20135;-78
2023/04/15 05:55:35;;;;;;;17.08;10.48;;;;;;;;;;5041853;28;20076;-77
2023/04/15 05:58:02;;;;;;;16.17;10.60;;;;;;;;;;5039527;28;20040;-77
2023/04/15 06:00:28;;;;;;;17.85;10.60;;;;;;;;;;5004636;28;20401;-78
2023/04/15 06:02:57;;;;;;;14.32;10.20;;;;;;;;;;5023011;28;20048;-78
2023/04/15 06:05:24;;;;;;;18.17;11.27;;;;;;;;;;5021689;28;20060;-78
2023/04/15 06:07:50;;;;;;;17.35;10.85;;;;;;;;;;5019689;28;20501;-79
2023/04/15 06:10:16;;;;;;;24.10;11.43;;;;;;;;;;5016573;28;20049;-78
2023/04/15 06:12:42;;;;;;;14.90;10.20;;;;;;;;;;5015716;28;21189;-77
2023/04/15 06:15:11;;;;;;;13.02;8.82;;;;;;;;;;5038230;28;20071;-77
2023/04/15 06:17:37;;;;;;;15.23;9.60;;;;;;;;;;5015013;28;20033;-78
2023/04/15 06:20:04;;;;;;;19.63;12.15;;;;;;;;;;4998031;28;20063;-78
2023/04/15 06:22:30;;;;;;;21.00;10.98;;;;;;;;;;5016343;28;20067;-78
2023/04/15 06:24:56;;;;;;;18.52;10.77;;;;;;;;;;5019371;28;20201;-78
2023/04/15 06:27:22;;;;;;;18.23;11.48;;;;;;;;;;5033706;28;20728;-78
2023/04/15 06:29:48;;;;;;;18.45;11.02;;;;;;;;;;5020229;28;21519;-78
2023/04/15 06:32:15;;;;;;;12.82;9.15;;;;;;;;;;5020001;28;20076;-78
2023/04/15 06:34:41;;;;;;;12.98;8.45;;;;;;;;;;5001343;28;20128;-78
2023/04/15 06:37:08;;;;;;;20.58;9.48;;;;;;;;;;5020460;28;20048;-77
2023/04/15 06:39:35;;;;;;;11.98;7.75;;;;;;;;;;5005925;28;20084;-78
2023/04/15 06:42:02;;;;;;;16.20;8.07;;;;;;;;;;5020008;28;20079;-79
2023/04/15 06:44:28;;;;;;;13.80;8.00;;;;;;;;;;5024182;28;20064;-79
2023/04/15 06:46:55;;;;;;;14.57;8.50;;;;;;;;;;5042006;28;20128;-79
2023/04/15 06:49:21;;;;;;;12.60;7.43;;;;;;;;;;5041240;28;20045;-78
2023/04/15 06:51:47;;;;;;;14.05;8.10;;;;;;;;;;5042630;28;20119;-78
2023/04/15 06:54:14;;;;;;;12.73;8.32;;;;;;;;;;5044572;28;20047;-78
2023/04/15 06:56:40;;;;;;;11.50;7.32;;;;;;;;;;5023468;28;20127;-79
2023/04/15 06:59:07;;;;;;;8.50;6.72;;;;;;;;;;5005226;28;20071;-80
2023/04/15 07:01:33;;;;;;;9.93;7.00;;;;;;;;;;5022598;28;20545;-78
2023/04/15 07:04:00;;;;;;;16.60;7.53;;;;;;;;;;5020447;28;20046;-79
2023/04/15 07:06:26;;;;;;;10.02;6.95;;;;;;;;;;5021818;28;20049;-78
2023/04/15 07:08:53;;;;;;;10.23;6.65;;;;;;;;;;5023527;28;20080;-78
2023/04/15 07:11:20;;;;;;;13.15;6.18;;;;;;;;;;5010515;28;20172;-76
2023/04/15 07:13:46;;;;;;;15.32;7.43;;;;;;;;;;5045532;28;20079;-76
2023/04/15 07:16:12;;;;;;;11.25;7.28;;;;;;;;;;5026926;28;20059;-76
2023/04/15 07:18:38;;;;;;;10.63;6.65;;;;;;;;;;5027786;28;20441;-76
2023/04/15 07:21:04;;;;;;;10.80;7.10;;;;;;;;;;5027680;28;20055;-77
2023/04/15 07:23:31;;;;;;;12.00;6.75;;;;;;;;;;5024175;28;20052;-76
2023/04/15 07:25:57;;;;;;;13.45;6.80;;;;;;;;;;5025482;28;20048;-76
2023/04/15 07:28:23;;;;;;;9.80;6.43;;;;;;;;;;5009806;28;20631;-76
2023/04/15 07:30:49;;;;;;;8.98;5.35;;;;;;;;;;5043601;28;20074;-76
2023/04/15 07:33:21;;;;;;;7.22;5.07;;;;;;;;;;5042674;28;20043;-76
2023/04/15 07:35:47;;;;;;;6.55;3.90;;;;;;;;;;5005401;28;20132;-76
2023/04/15 07:38:13;;;;;;;5.45;3.55;;;;;;;;;;5044999;28;20515;-75
2023/04/15 07:40:39;;;;;;;5.63;3.92;;;;;;;;;;5026033;28;20121;-76
2023/04/15 07:43:05;;;;;;;6.90;4.18;;;;;;;;;;5002356;28;20167;-75
2023/04/15 07:45:32;;;;;;;7.70;4.50;;;;;;;;;;5046303;28;20045;-76
2023/04/15 07:47:58;;;;;;;6.72;4.35;;;;;;;;;;5026000;28;20082;-77
2023/04/15 07:50:24;;;;;;;6.10;4.10;;;;;;;;;;5045955;28;20079;-76
2023/04/15 07:52:51;;;;;;;10.80;3.95;;;;;;;;;;5037169;28;20083;-76
2023/04/15 07:55:18;;;;;;;6.75;4.35;;;;;;;;;;5043553;28;20052;-75
2023/04/15 07:57:46;;;;;;;6.70;4.13;;;;;;;;;;5006438;28;20052;-76
2023/04/15 08:00:12;;;;;;;8.95;4.00;;;;;;;;;;5022103;28;20136;-75
2023/04/15 08:02:39;;;;;;;5.80;3.63;;;;;;;;;;5041378;28;20075;-76
2023/04/15 08:05:06;;;;;;;7.18;3.72;;;;;;;;;;5040499;28;20041;-75
2023/04/15 08:07:32;;;;;;;6.68;3.78;;;;;;;;;;5038887;28;20138;-76
2023/04/15 08:09:58;;;;;;;8.10;3.35;;;;;;;;;;5004583;28;20048;-75
2023/04/15 08:12:25;;;;;;;6.13;2.30;;;;;;;;;;5043286;28;20049;-75
2023/04/15 08:14:51;;;;;;;3.45;2.30;;;;;;;;;;5046293;28;20492;-74
2023/04/15 08:17:17;;;;;;;5.18;2.80;;;;;;;;;;5041374;28;20060;-75
2023/04/15 08:19:43;;;;;;;5.75;2.97;;;;;;;;;;5040401;28;20249;-74
2023/04/15 08:22:11;;;;;;;7.20;3.25;;;;;;;;;;5021594;28;21310;-75
2023/04/15 08:24:37;;;;;;;7.93;3.53;;;;;;;;;;5039025;28;20049;-75
2023/04/15 08:27:04;;;;;;;5.38;2.20;;;;;;;;;;5040521;28;20052;-75
2023/04/15 08:29:31;;;;;;;5.05;2.50;;;;;;;;;;5002595;28;20083;-75
2023/04/15 08:31:57;;;;;;;5.38;2.78;;;;;;;;;;5040514;28;20090;-75
2023/04/15 08:34:24;;;;;;;5.28;2.05;;;;;;;;;;5039377;28;20497;-75
2023/04/15 08:36:50;;;;;;;4.95;2.17;;;;;;;;;;5040180;28;20067;-75
2023/04/15 08:39:17;;;;;;;4.82;1.85;;;;;;;;;;5018199;28;20207;-75
2023/04/15 08:41:47;;;;;;;3.15;1.92;;;;;;;;;;5038909;28;20473;-75
2023/04/15 08:44:15;;;;;;;4.30;1.70;;;;;;;;;;5040167;28;20657;-75
2023/04/15 08:46:41;;;;;;;3.85;2.28;;;;;;;;;;5038495;28;20101;-75
2023/04/15 08:49:12;;;;;;;5.00;2.30;;;;;;;;;;5018567;28;20059;-75
2023/04/15 08:51:41;;;;;;;4.18;1.90;;;;;;;;;;5017104;28;21890;-75
2023/04/15 08:54:10;;;;;;;4.68;2.20;;;;;;;;;;5018004;28;21527;-75
2023/04/15 08:56:39;;;;;;;8.18;2.20;;;;;;;;;;5005459;28;20123;-74
2023/04/15 08:59:06;;;;;;;7.00;2.30;;;;;;;;;;5018699;28;20726;-75
2023/04/15 09:01:32;;;;;;;4.40;2.22;;;;;;;;;;5017339;28;20048;-75
2023/04/15 09:03:58;;;;;;;4.95;2.17;;;;;;;;;;5018650;28;20082;-75
2023/04/15 09:06:25;;;;;;;4.35;2.10;;;;;;;;;;5019677;28;20041;-74
2023/04/15 09:08:51;;;;;;;6.95;2.13;;;;;;;;;;5020182;28;20117;-75
2023/04/15 09:11:18;;;;;;;5.18;2.20;;;;;;;;;;5031178;28;20047;-75
2023/04/15 09:13:45;;;;;;;3.85;2.00;;;;;;;;;;5018834;28;20591;-74
2023/04/15 09:16:11;;;;;;;5.00;2.15;;;;;;;;;;5016467;28;20088;-75
2023/04/15 09:18:38;;;;;;;5.65;1.77;;;;;;;;;;5035114;28;20553;-75
2023/04/15 09:21:14;;;;;;;5.90;1.90;;;;;;;;;;5021423;28;20094;-75
2023/04/15 09:23:41;;;;;;;3.95;1.75;;;;;;;;;;5002556;28;20044;-75
2023/04/15 09:26:07;;;;;;;7.88;2.47;;;;;;;;;;5020943;28;20059;-74
2023/04/15 09:28:41;;;;;;;6.20;1.95;;;;;;;;;;5017081;28;20056;-75
2023/04/15 09:31:07;;;;;;;6.25;2.40;;;;;;;;;;5020977;28;20049;-75
2023/04/15 09:33:33;;;;;;;7.75;2.28;;;;;;;;;;5019227;28;20041;-75
2023/04/15 09:35:59;;;;;;;5.88;2.03;;;;;;;;;;5019215;28;20129;-75
2023/04/15 09:38:25;;;;;;;3.97;2.88;;;;;;;;;;5017503;28;20590;-74
2023/04/15 09:40:51;;;;;;;5.88;2.33;;;;;;;;;;5018128;28;20041;-76
2023/04/15 09:43:17;;;;;;;4.03;1.65;;;;;;;;;;5020797;28;20037;-75
2023/04/15 09:45:50;;;;;;;3.03;1.83;;;;;;;;;;5014913;28;20040;-75
2023/04/15 09:48:19;;;;;;;2.90;1.60;;;;;;;;;;5015823;28;20037;-75
2023/04/15 09:50:47;;;;;;;6.10;1.95;;;;;;;;;;5021210;28;20056;-75
2023/04/15 09:53:18;;;;;;;6.60;1.90;;;;;;;;;;5040079;28;20052;-75
2023/04/15 09:55:50;;;;;;;5.63;1.80;;;;;;;;;;5041175;28;20040;-74
2023/04/15 09:58:19;;;;;;;7.55;1.90;;;;;;;;;;5039069;28;20041;-74
2023/04/15 10:00:47;;;;;;;8.25;2.15;;;;;;;;;;5022721;28;20508;-78
2023/04/15 10:03:18;;;;;;;3.95;2.10;;;;;;;;;;5040809;28;20094;-77
2023/04/15 10:05:45;;;;;;;5.22;1.77;;;;;;;;;;5022243;28;20859;-77
2023/04/15 10:08:12;;;;;;;3.42;1.75;;;;;;;;;;5027200;28;20066;-78
2023/04/15 10:10:39;;;;;;;5.97;2.50;;;;;;;;;;5023419;28;20041;-77
2023/04/15 10:13:06;;;;;;;6.10;2.22;;;;;;;;;;5028025;28;20392;-77
2023/04/15 10:15:38;;;;;;;7.38;2.08;;;;;;;;;;5026565;28;21650;-75
2023/04/15 10:18:05;;;;;;;8.02;2.53;;;;;;;;;;5040088;28;20051;-75
2023/04/15 10:20:31;;;;;;;6.05;2.10;;;;;;;;;;5039647;28;20040;-75
2023/04/15 10:22:57;;;;;;;3.83;1.73;;;;;;;;;;5017819;28;20708;-75
2023/04/15 10:25:25;;;;;;;7.18;2.42;;;;;;;;;;5041883;28;20040;-74
2023/04/15 10:27:51;;;;;;;12.52;3.28;;;;;;;;;;5040856;28;20393;-75
2023/04/15 10:30:18;;;;;;;6.05;2.42;;;;;;;;;;5023292;28;20063;-74
2023/04/15 10:32:47;;;;;;;6.22;3.10;;;;;;;;;;5010579;28;20067;-76
2023/04/15 10:35:13;;;;;;;8.93;2.03;;;;;;;;;;5005726;28;20041;-75
2023/04/15 10:37:39;;;;;;;7.10;2.17;;;;;;;;;;5024036;28;20044;-75
2023/04/15 10:40:26;;;;;;;7.97;2.47;;;;;;;;;;5021622;28;20068;-75
2023/04/15 10:42:52;;;;;;;5.05;2.08;;;;;;;;;;5041741;28;20515;-75
2023/04/15 10:45:19;;;;;;;5.75;2.00;;;;;;;;;;5041178;28;20220;-75
2023/04/15 10:47:45;;;;;;;5.13;2.05;;;;;;;;;;5038709;28;20048;-75
2023/04/15 10:50:11;;;;;;;7.70;2.83;;;;;;;;;;5003830;28;20051;-76
2023/04/15 10:52:43;;;;;;;6.95;2.63;;;;;;;;;;5039822;28;20074;-76
2023/04/15 10:55:14;;;;;;;9.80;2.90;;;;;;;;;;5023726;28;20052;-76
2023/04/15 10:57:41;;;;;;;7.35;1.98;;;;;;;;;;5040969;28;20043;-75
2023/04/15 11:00:07;;;;;;;12.05;3.13;;;;;;;;;;5001686;28;20056;-75
2023/04/15 11:02:43;;;;;;;7.13;2.05;;;;;;;;;;5044084;28;20047;-75
2023/04/15 11:05:10;;;;;;;5.90;2.33;;;;;;;;;;5038458;28;20175;-76
2023/04/15 11:07:36;;;;;;;7.05;2.28;;;;;;;;;;5042110;28;20476;-76
2023/04/15 11:10:03;;;;;;;7.03;1.70;;;;;;;;;;5041420;28;20422;-76
2023/04/15 11:12:35;;;;;;;6.50;1.98;;;;;;;;;;5041548;28;20041;-76
2023/04/15 11:15:21;;;;;;;10.07;1.95;;;;;;;;;;5041350;28;20124;-76
2023/04/15 11:17:47;;;;;;;8.60;1.95;;;;;;;;;;5025913;28;20043;-76
2023/04/15 11:20:16;;;;;;;10.32;2.83;;;;;;;;;;5041140;28;20071;-76
2023/04/15 11:22:48;;;;;;;11.48;2.92;;;;;;;;;;5037263;28;20048;-76
2023/04/15 11:25:34;;;;;;;11.18;2.30;;;;;;;;;;5041726;28;20091;-77
2023/04/15 11:28:01;;;;;;;8.57;2.47;;;;;;;;;;5041230;28;20127;-77
2023/04/15 11:30:29;;;;;;;7.30;1.92;;;;;;;;;;5039449;28;20737;-78
2023/04/15 11:32:59;;;;;;;13.15;2.13;;;;;;;;;;5040739;28;20036;-76
2023/04/15 11:35:25;;;;;;;10.35;2.05;;;;;;;;;;5042380;28;20040;-77
2023/04/15 11:37:52;;;;;;;7.65;2.20;;;;;;;;;;5041976;28;20149;-77
2023/04/15 11:40:26;;;;;;;11.82;2.78;;;;;;;;;;5040125;28;20067;-77
2023/04/15 11:43:07;;;;;;;13.20;2.25;;;;;;;;;;5042635;28;20049;-77
2023/04/15 11:45:33;;;;;;;7.75;2.30;;;;;;;;;;5039021;28;20044;-78
2023/04/15 11:48:06;;;;;;;7.28;1.70;;;;;;;;;;5024013;28;20090;-77
2023/04/15 11:50:33;;;;;;;12.93;1.57;;;;;;;;;;5026034;28;20094;-78
2023/04/15 11:53:00;;;;;;;5.97;1.98;;;;;;;;;;5025863;28;20105;-77
2023/04/15 11:55:26;;;;;;;12.90;2.22;;;;;;;;;;5025732;28;20117;-77
2023/04/15 11:58:11;;;;;;;9.57;2.08;;;;;;;;;;5025739;28;20056;-77
2023/04/15 12:00:38;;;;;;;11.77;2.65;;;;;;;;;;5026059;28;20044;-77
2023/04/15 12:03:23;;;;;;;12.15;2.28;;;;;;;;;;5027224;28;20531;-77
2023/04/15 12:06:10;;;;;;;10.77;2.30;;;;;;;;;;5044768;28;20126;-78
2023/04/15 12:08:52;;;;;;;14.63;2.90;;;;;;;;;;5021044;28;20048;-77
2023/04/15 12:11:38;;;;;;;11.45;2.00;;;;;;;;;;5038499;28;20753;-76
2023/04/15 12:14:16;;;;;;;9.75;2.47;;;;;;;;;;5038632;28;20086;-77
2023/04/15 12:16:47;;;;;;;10.15;2.60;;;;;;;;;;5038044;28;20041;-74
2023/04/15 12:19:15;;;;;;;13.48;2.55;;;;;;;;;;5021129;28;20755;-75
2023/04/15 12:21:43;;;;;;;8.05;2.00;;;;;;;;;;5000882;28;20113;-75
2023/04/15 12:24:11;;;;;;;10.35;2.38;;;;;;;;;;5019373;28;20052;-75
2023/04/15 12:26:42;;;;;;;12.93;2.00;;;;;;;;;;5037729;28;20048;-76
2023/04/15 12:29:08;;;;;;;10.43;2.03;;;;;;;;;;5037305;28;20604;-78
2023/04/15 12:31:38;;;;;;;14.93;2.08;;;;;;;;;;5002388;28;20404;-77
2023/04/15 12:34:08;;;;;;;11.23;2.30;;;;;;;;;;5018348;28;20048;-76
2023/04/15 12:36:37;;;;;;;19.00;2.83;;;;;;;;;;5017157;28;20048;-77
2023/04/15 12:39:04;;;;;;;14.70;2.88;;;;;;;;;;5026866;28;20122;-75
2023/04/15 12:41:30;;;;;;;14.85;2.40;;;;;;;;;;5015295;28;20409;-76
2023/04/15 12:43:56;;;;;;;8.75;2.90;;;;;;;;;;5043506;28;20055;-73
2023/04/15 12:46:22;;;;;;;13.48;2.70;;;;;;;;;;5028512;28;21950;-75
2023/04/15 12:48:50;;;;;;;10.70;2.25;;;;;;;;;;5047000;28;20083;-74
2023/04/15 12:51:16;;;;;;;11.93;2.30;;;;;;;;;;5006580;28;20063;-74
2023/04/15 12:53:42;;;;;;;13.90;3.22;;;;;;;;;;5044447;28;20056;-75
2023/04/15 12:56:08;;;;;;;8.95;1.95;;;;;;;;;;5022582;28;20138;-74
2023/04/15 12:58:34;;;;;;;9.65;2.28;;;;;;;;;;5041524;28;20074;-74
2023/04/15 13:01:00;;;;;;;14.68;2.10;;;;;;;;;;5040819;28;20439;-74
2023/04/15 13:03:27;;;;;;;11.80;2.38;;;;;;;;;;5041483;28;20048;-74
2023/04/15 13:05:53;;;;;;;11.88;2.40;;;;;;;;;;5041636;28;20033;-74
2023/04/15 13:08:19;;;;;;;8.07;2.00;;;;;;;;;;5039385;28;20206;-74
2023/04/15 13:10:45;;;;;;;12.02;2.58;;;;;;;;;;5021669;28;20068;-74
2023/04/15 13:13:11;;;;;;;9.98;2.78;;;;;;;;;;5020307;28;20617;-74
2023/04/15 13:15:37;;;;;;;8.98;2.30;;;;;;;;;;5024033;28;20098;-75
2023/04/15 13:18:04;;;;;;;13.82;2.90;;;;;;;;;;5022167;28;20176;-74
2023/04/15 13:20:31;;;;;;;9.65;2.13;;;;;;;;;;5020499;28;20094;-74
2023/04/15 13:22:57;;;;;;;8.13;2.53;;;;;;;;;;5023938;28;20040;-74
2023/04/15 13:25:23;;;;;;;12.85;2.83;;;;;;;;;;5021003;28;20159;-75
2023/04/15 13:27:49;;;;;;;14.27;2.67;;;;;;;;;;5038922;28;20048;-75
2023/04/15 13:30:16;;;;;;;12.70;2.25;;;;;;;;;;5021508;28;20059;-74
2023/04/15 13:32:44;;;;;;;9.60;2.22;;;;;;;;;;5027256;28;20055;-75
2023/04/15 13:35:10;;;;;;;12.82;2.50;;;;;;;;;;5045811;28;20660;-74
2023/04/15 13:37:38;;;;;;;12.23;2.40;;;;;;;;;;5026024;28;20054;-75
2023/04/15 13:40:06;;;;;;;12.50;2.45;;;;;;;;;;5010379;28;20040;-75
2023/04/15 13:42:32;;;;;;;11.63;2.63;;;;;;;;;;5041245;28;20516;-75
2023/04/15 13:44:58;;;;;;;15.52;2.78;;;;;;;;;;5039080;28;20047;-74
2023/04/15 13:47:25;;;;;;;17.27;2.55;;;;;;;;;;5045872;28;21934;-74
2023/04/15 13:49:53;;;;;;;13.73;3.03;;;;;;;;;;5042951;28;21080;-74
2023/04/15 13:52:19;;;;;;;9.68;2.58;;;;;;;;;;5044719;28;20393;-74
2023/04/15 13:54:46;;;;;;;16.80;3.30;;;;;;;;;;5042027;28;20040;-73
2023/04/15 13:57:12;;;;;;;13.20;2.58;;;;;;;;;;5008068;28;20044;-74
2023/04/15 13:59:38;;;;;;;10.32;2.70;;;;;;;;;;5025863;28;20130;-74
2023/04/15 14:02:04;;;;;;;10.10;3.13;;;;;;;;;;5008072;28;20045;-74
2023/04/15 14:04:31;;;;;;;9.02;2.42;;;;;;;;;;5044765;28;20040;-73
2023/04/15 14:06:57;;;;;;;10.80;3.10;;;;;;;;;;5004122;28;20476;-74
2023/04/15 14:09:24;;;;;;;9.73;3.22;;;;;;;;;;5023625;28;20499;-73
2023/04/15 14:11:50;;;;;;;20.23;3.33;;;;;;;;;;5021486;28;20048;-73
2023/04/15 14:14:16;;;;;;;15.50;3.42;;;;;;;;;;5041696;28;20040;-74
2023/04/15 14:16:42;;;;;;;11.20;2.92;;;;;;;;;;5043324;28;20059;-74
2023/04/15 14:19:08;;;;;;;13.52;3.40;;;;;;;;;;5005945;28;20048;-73
2023/04/15 14:21:34;;;;;;;15.00;3.70;;;;;;;;;;5042738;28;20159;-74
2023/04/15 14:24:01;;;;;;;15.10;2.65;;;;;;;;;;5025352;28;20045;-73
2023/04/15 14:26:27;;;;;;;14.02;3.63;;;;;;;;;;5006200;28;20102;-76
2023/04/15 14:28:53;;;;;;;18.42;3.05;;;;;;;;;;5039317;28;20983;-72